createdAt,value
2023-01-11T00:00:20.381Z,-0.66
2023-01-11T00:01:13.707Z,-0.74
2023-01-11T00:01:51.354Z,-0.76
2023-01-11T00:02:25.381Z,-0.77
2023-01-11T00:03:00.894Z,-0.79
2023-01-11T00:03:34.482Z,-0.80
2023-01-11T00:04:07.823Z,-0.81
2023-01-11T00:04:41.669Z,-0.81
2023-01-11T00:05:15.384Z,-0.80
2023-01-11T00:05:48.847Z,-0.79
2023-01-11T00:06:22.310Z,-0.79
2023-01-11T00:06:56.507Z,-0.79
2023-01-11T00:07:30.213Z,-0.79
2023-01-11T00:08:05.053Z,-0.76
2023-01-11T00:08:38.374Z,-0.77
2023-01-11T00:09:12.507Z,-0.76
2023-01-11T00:09:47.993Z,-0.77
2023-01-11T00:10:22.154Z,-0.76
2023-01-11T00:10:56.091Z,-0.78
2023-01-11T00:11:29.616Z,-0.75
2023-01-11T00:12:03.174Z,-0.73
2023-01-11T00:12:36.669Z,-0.69
2023-01-11T00:13:10.092Z,-0.66
2023-01-11T00:13:45.564Z,-0.69
2023-01-11T00:14:19.080Z,-0.72
2023-01-11T00:14:52.432Z,-0.73
2023-01-11T00:15:26.051Z,-0.75
2023-01-11T00:16:06.422Z,-0.74
2023-01-11T00:16:40.057Z,-0.75
2023-01-11T00:17:13.486Z,-0.77
2023-01-11T00:17:46.952Z,-0.78
2023-01-11T00:18:20.419Z,-0.78
2023-01-11T00:18:53.844Z,-0.78
2023-01-11T00:19:27.275Z,-0.77
2023-01-11T00:20:00.699Z,-0.78
2023-01-11T00:20:34.161Z,-0.78
2023-01-11T00:21:08.153Z,-0.77
2023-01-11T00:21:41.738Z,-0.79
2023-01-11T00:22:15.142Z,-0.78
2023-01-11T00:22:48.543Z,-0.78
2023-01-11T00:23:25.240Z,-0.79
2023-01-11T00:23:58.683Z,-0.79
2023-01-11T00:24:32.241Z,-0.79
2023-01-11T00:25:06.028Z,-0.77
2023-01-11T00:25:39.495Z,-0.76
2023-01-11T00:26:13.917Z,-0.78
2023-01-11T00:26:47.777Z,-0.79
2023-01-11T00:27:21.309Z,-0.80
2023-01-11T00:27:55.223Z,-0.80
2023-01-11T00:28:28.801Z,-0.80
2023-01-11T00:29:02.394Z,-0.81
2023-01-11T00:29:35.816Z,-0.81
2023-01-11T00:30:09.845Z,-0.80
2023-01-11T00:30:43.216Z,-0.81
2023-01-11T00:31:17.809Z,-0.81
2023-01-11T00:31:53.503Z,-0.83
2023-01-11T00:32:27.579Z,-0.84
2023-01-11T00:33:01.207Z,-0.84
2023-01-11T00:33:34.633Z,-0.85
2023-01-11T00:34:08.175Z,-0.85
2023-01-11T00:34:41.744Z,-0.86
2023-01-11T00:35:15.503Z,-0.85
2023-01-11T00:35:51.794Z,-0.86
2023-01-11T00:36:25.617Z,-0.86
2023-01-11T00:36:59.134Z,-0.87
2023-01-11T00:37:32.747Z,-0.88
2023-01-11T00:38:06.209Z,-0.88
2023-01-11T00:38:51.782Z,-0.90
2023-01-11T00:39:25.349Z,-0.90
2023-01-11T00:39:58.917Z,-0.91
2023-01-11T00:40:35.318Z,-0.91
2023-01-11T00:41:28.047Z,-0.92
2023-01-11T00:42:20.262Z,-0.95
2023-01-11T00:43:12.608Z,-0.97
2023-01-11T00:44:05.078Z,-0.96
2023-01-11T00:44:57.382Z,-1.10
2023-01-11T00:45:50.318Z,-1.16
2023-01-11T00:46:42.523Z,-1.22
2023-01-11T00:47:36.153Z,-1.27
2023-01-11T00:48:11.102Z,-1.30
2023-01-11T00:48:44.550Z,-1.32
2023-01-11T00:49:18.334Z,-1.32
2023-01-11T00:49:51.964Z,-1.33
2023-01-11T00:50:27.059Z,-1.34
2023-01-11T00:51:00.491Z,-1.36
2023-01-11T00:51:33.973Z,-1.38
2023-01-11T00:52:09.892Z,-1.39
2023-01-11T00:52:43.545Z,-1.39
2023-01-11T00:53:18.628Z,-1.39
2023-01-11T00:53:52.640Z,-1.40
2023-01-11T00:54:26.146Z,-1.40
2023-01-11T00:54:59.512Z,-1.40
2023-01-11T00:55:33.104Z,-1.39
2023-01-11T00:56:06.659Z,-1.37
2023-01-11T00:56:40.517Z,-1.37
2023-01-11T00:57:13.851Z,-1.40
2023-01-11T00:57:47.338Z,-1.40
2023-01-11T00:58:20.853Z,-1.41
2023-01-11T00:58:54.204Z,-1.38
2023-01-11T00:59:27.618Z,-1.37
2023-01-11T01:00:01.096Z,-1.38
2023-01-11T01:00:34.625Z,-1.37
2023-01-11T01:01:08.307Z,-1.36
2023-01-11T01:01:44.243Z,-1.37
2023-01-11T01:02:17.733Z,-1.40
2023-01-11T01:02:51.265Z,-1.40
2023-01-11T01:03:24.741Z,-1.40
2023-01-11T01:03:59.987Z,-1.41
2023-01-11T01:04:33.510Z,-1.38
2023-01-11T01:05:07.513Z,-1.36
2023-01-11T01:05:40.847Z,-1.39
2023-01-11T01:06:14.237Z,-1.42
2023-01-11T01:06:48.139Z,-1.43
2023-01-11T01:07:21.580Z,-1.43
2023-01-11T01:07:55.084Z,-1.43
2023-01-11T01:08:28.651Z,-1.43
2023-01-11T01:09:02.223Z,-1.42
2023-01-11T01:09:35.903Z,-1.42
2023-01-11T01:10:10.594Z,-1.41
2023-01-11T01:10:43.997Z,-1.42
2023-01-11T01:11:17.514Z,-1.41
2023-01-11T01:11:51.021Z,-1.40
2023-01-11T01:12:44.420Z,-1.40
2023-01-11T01:13:36.933Z,-1.43
2023-01-11T01:14:26.934Z,-1.44
2023-01-11T01:15:00.437Z,-1.45
2023-01-11T01:15:36.426Z,-1.47
2023-01-11T01:16:09.928Z,-1.48
2023-01-11T01:16:43.540Z,-1.48
2023-01-11T01:17:16.908Z,-1.47
2023-01-11T01:17:54.053Z,-1.47
2023-01-11T01:18:27.479Z,-1.47
2023-01-11T01:19:01.183Z,-1.48
2023-01-11T01:19:36.849Z,-1.47
2023-01-11T01:20:10.835Z,-1.45
2023-01-11T01:20:44.463Z,-1.45
2023-01-11T01:21:17.889Z,-1.45
2023-01-11T01:21:51.363Z,-1.44
2023-01-11T01:22:24.875Z,-1.42
2023-01-11T01:22:58.375Z,-1.43
2023-01-11T01:23:31.800Z,-1.43
2023-01-11T01:24:05.460Z,-1.43
2023-01-11T01:24:38.885Z,-1.41
2023-01-11T01:25:12.366Z,-1.44
2023-01-11T01:25:45.842Z,-1.39
2023-01-11T01:26:19.372Z,-1.39
2023-01-11T01:26:52.883Z,-1.41
2023-01-11T01:27:26.668Z,-1.42
2023-01-11T01:28:00.054Z,-1.43
2023-01-11T01:28:43.973Z,-1.45
2023-01-11T01:29:17.722Z,-1.46
2023-01-11T01:29:51.109Z,-1.46
2023-01-11T01:30:24.506Z,-1.44
2023-01-11T01:30:57.881Z,-1.45
2023-01-11T01:31:31.553Z,-1.44
2023-01-11T01:32:05.363Z,-1.38
2023-01-11T01:32:38.874Z,-1.34
2023-01-11T01:33:12.225Z,-1.38
2023-01-11T01:33:45.546Z,-1.40
2023-01-11T01:34:18.967Z,-1.45
2023-01-11T01:34:53.862Z,-1.43
2023-01-11T01:35:28.627Z,-1.43
2023-01-11T01:36:02.726Z,-1.45
2023-01-11T01:36:36.304Z,-1.46
2023-01-11T01:37:11.719Z,-1.46
2023-01-11T01:37:45.241Z,-1.44
2023-01-11T01:38:18.713Z,-1.45
2023-01-11T01:38:52.265Z,-1.48
2023-01-11T01:39:25.623Z,-1.50
2023-01-11T01:39:59.061Z,-1.50
2023-01-11T01:40:32.561Z,-1.50
2023-01-11T01:41:06.097Z,-1.50
2023-01-11T01:41:41.050Z,-1.50
2023-01-11T01:42:17.932Z,-1.51
2023-01-11T01:42:55.174Z,-1.50
2023-01-11T01:43:52.990Z,-1.51
2023-01-11T01:44:53.884Z,-1.51
2023-01-11T01:45:29.090Z,-1.61
2023-01-11T01:46:02.505Z,-1.65
2023-01-11T01:46:36.041Z,-1.66
2023-01-11T01:47:10.301Z,-1.64
2023-01-11T01:47:51.730Z,-1.62
2023-01-11T01:48:26.980Z,-1.65
2023-01-11T01:49:07.335Z,-1.65
2023-01-11T01:49:42.619Z,-1.65
2023-01-11T01:50:18.693Z,-1.66
2023-01-11T01:50:55.933Z,-1.66
2023-01-11T01:51:39.619Z,-1.71
2023-01-11T01:52:13.855Z,-1.66
2023-01-11T01:52:52.475Z,-1.66
2023-01-11T01:53:38.414Z,-1.65
2023-01-11T01:54:21.197Z,-1.65
2023-01-11T01:54:58.908Z,-1.66
2023-01-11T01:55:37.678Z,-1.66
2023-01-11T01:56:20.180Z,-1.66
2023-01-11T01:57:00.032Z,-1.65
2023-01-11T01:57:37.555Z,-1.65
2023-01-11T01:58:16.667Z,-1.65
2023-01-11T01:59:05.584Z,-1.62
2023-01-11T01:59:39.245Z,-1.63
2023-01-11T02:00:14.107Z,-1.63
2023-01-11T02:00:47.534Z,-1.63
2023-01-11T02:01:39.517Z,-1.62
2023-01-11T02:02:12.933Z,-1.62
2023-01-11T02:02:47.159Z,-1.62
2023-01-11T02:03:24.571Z,-1.62
2023-01-11T02:03:58.135Z,-1.62
2023-01-11T02:04:38.537Z,-1.63
2023-01-11T02:05:14.011Z,-1.60
2023-01-11T02:05:48.171Z,-1.60
2023-01-11T02:06:23.145Z,-1.59
2023-01-11T02:07:15.055Z,-1.58
2023-01-11T02:07:48.986Z,-1.62
2023-01-11T02:08:33.328Z,-1.61
2023-01-11T02:09:23.683Z,-1.62
2023-01-11T02:09:57.158Z,-1.64
2023-01-11T02:10:33.211Z,-1.66
2023-01-11T02:11:27.980Z,-1.65
2023-01-11T02:12:03.215Z,-1.64
2023-01-11T02:12:51.008Z,-1.65
2023-01-11T02:13:24.991Z,-1.67
2023-01-11T02:14:09.451Z,-1.65
2023-01-11T02:14:44.545Z,-1.65
2023-01-11T02:15:21.128Z,-1.68
2023-01-11T02:16:08.311Z,-1.70
2023-01-11T02:16:42.181Z,-1.73
2023-01-11T02:17:15.959Z,-1.73
2023-01-11T02:17:49.495Z,-1.73
2023-01-11T02:18:23.133Z,-1.71
2023-01-11T02:18:58.923Z,-1.68
2023-01-11T02:20:00.248Z,-1.67
2023-01-11T02:20:43.191Z,-1.70
2023-01-11T02:21:27.824Z,-1.76
2023-01-11T02:22:28.736Z,-1.78
2023-01-11T02:23:02.136Z,-1.80
2023-01-11T02:23:45.081Z,-1.79
2023-01-11T02:24:36.883Z,-1.80
2023-01-11T02:25:34.751Z,-1.80
2023-01-11T02:26:10.775Z,-1.80
2023-01-11T02:27:02.630Z,-1.80
2023-01-11T02:28:07.827Z,-1.80
2023-01-11T02:28:52.762Z,-1.80
2023-01-11T02:29:33.276Z,-1.78
2023-01-11T02:30:14.139Z,-1.77
2023-01-11T02:31:12.592Z,-1.76
2023-01-11T02:32:18.274Z,-1.77
2023-01-11T02:32:57.262Z,-1.77
2023-01-11T02:34:08.570Z,-1.76
2023-01-11T02:34:57.676Z,-1.79
2023-01-11T02:35:47.156Z,-1.78
2023-01-11T02:36:47.005Z,-1.79
2023-01-11T02:37:39.532Z,-1.86
2023-01-11T02:38:33.770Z,-1.82
2023-01-11T02:39:10.025Z,-1.83
2023-01-11T02:39:52.446Z,-1.84
2023-01-11T02:40:36.162Z,-1.83
2023-01-11T02:41:28.708Z,-1.82
2023-01-11T02:42:39.781Z,-1.83
2023-01-11T02:43:52.112Z,-1.83
2023-01-11T02:44:55.690Z,-1.83
2023-01-11T02:45:29.238Z,-1.85
2023-01-11T02:46:13.534Z,-1.82
2023-01-11T02:46:52.708Z,-1.80
2023-01-11T02:47:55.219Z,-1.78
2023-01-11T02:48:37.545Z,-1.78
2023-01-11T02:51:03.783Z,-1.73
2023-01-11T02:51:52.023Z,-1.84
2023-01-11T02:52:49.841Z,-1.75
2023-01-11T02:53:32.236Z,-1.73
2023-01-11T02:54:09.683Z,-1.71
2023-01-11T02:54:46.702Z,-1.68
2023-01-11T02:55:27.012Z,-1.66
2023-01-11T02:56:06.161Z,-1.64
2023-01-11T02:56:43.779Z,-1.60
2023-01-11T02:57:17.783Z,-1.58
2023-01-11T02:57:55.105Z,-1.56
2023-01-11T02:58:33.030Z,-1.53
2023-01-11T02:59:11.769Z,-1.50
2023-01-11T02:59:49.311Z,-1.49
2023-01-11T03:00:24.553Z,-1.47
2023-01-11T03:00:59.871Z,-1.45
2023-01-11T03:01:33.412Z,-1.43
2023-01-11T03:02:06.959Z,-1.41
2023-01-11T03:02:40.388Z,-1.40
2023-01-11T03:03:24.977Z,-1.38
2023-01-11T03:03:59.116Z,-1.35
2023-01-11T03:04:35.840Z,-1.33
2023-01-11T03:05:14.536Z,-1.29
2023-01-11T03:06:12.728Z,-1.25
2023-01-11T03:06:47.877Z,-1.23
2023-01-11T03:07:49.242Z,-1.23
2023-01-11T03:08:34.707Z,-1.21
2023-01-11T03:09:26.538Z,-1.21
2023-01-11T03:10:12.307Z,-1.20
2023-01-11T03:11:11.671Z,-1.18
2023-01-11T03:12:18.809Z,-1.09
2023-01-11T03:13:08.793Z,-1.11
2023-01-11T03:13:57.635Z,-1.12
2023-01-11T03:14:46.207Z,-1.10
2023-01-11T03:15:54.139Z,-1.05
2023-01-11T03:16:31.342Z,-1.08
2023-01-11T03:17:17.000Z,-1.06
2023-01-11T03:17:50.338Z,-1.05
2023-01-11T03:18:37.025Z,-1.02
2023-01-11T03:19:19.134Z,-1.01
2023-01-11T03:19:54.803Z,-0.99
2023-01-11T03:20:37.576Z,-0.96
2023-01-11T03:21:49.047Z,-0.90
2023-01-11T03:22:32.543Z,-0.89
2023-01-11T03:23:30.569Z,-0.87
2023-01-11T03:24:09.472Z,-0.90
2023-01-11T03:24:58.371Z,-0.90
2023-01-11T03:25:47.751Z,-0.93
2023-01-11T03:26:33.160Z,-0.93
2023-01-11T03:27:29.116Z,-0.93
2023-01-11T03:28:06.328Z,-0.91
2023-01-11T03:28:51.900Z,-0.89
2023-01-11T03:29:45.597Z,-0.87
2023-01-11T03:30:29.057Z,-0.85
2023-01-11T03:31:31.089Z,-0.83
2023-01-11T03:32:26.087Z,-0.85
2023-01-11T03:33:10.282Z,-0.85
2023-01-11T03:34:12.817Z,-0.83
2023-01-11T03:35:08.629Z,-0.84
2023-01-11T03:35:45.804Z,-0.82
2023-01-11T03:36:21.963Z,-0.84
2023-01-11T03:37:01.457Z,-0.85
2023-01-11T03:37:51.374Z,-0.84
2023-01-11T03:38:37.194Z,-0.82
2023-01-11T03:39:33.873Z,-0.82
2023-01-11T03:40:17.433Z,-0.77
2023-01-11T03:40:56.265Z,-0.77
2023-01-11T03:41:34.402Z,-0.78
2023-01-11T03:42:10.133Z,-0.75
2023-01-11T03:43:06.649Z,-0.76
2023-01-11T03:43:44.527Z,-0.78
2023-01-11T03:44:20.041Z,-0.78
2023-01-11T03:44:57.539Z,-0.76
2023-01-11T03:45:35.037Z,-0.72
2023-01-11T03:46:22.352Z,-0.72
2023-01-11T03:47:03.277Z,-0.72
2023-01-11T03:47:36.716Z,-0.69
2023-01-11T03:48:17.121Z,-0.67
2023-01-11T03:49:06.770Z,-0.68
2023-01-11T03:50:11.382Z,-0.69
2023-01-11T03:50:48.491Z,-0.73
2023-01-11T03:51:30.075Z,-0.73
2023-01-11T03:52:09.595Z,-0.73
2023-01-11T03:52:44.124Z,-0.70
2023-01-11T03:53:20.055Z,-0.67
2023-01-11T03:53:58.543Z,-0.64
2023-01-11T03:54:34.070Z,-0.65
2023-01-11T03:55:10.623Z,-0.65
2023-01-11T03:55:47.039Z,-0.65
2023-01-11T03:56:26.507Z,-0.65
2023-01-11T03:57:20.629Z,-0.65
2023-01-11T03:57:55.883Z,-0.66
2023-01-11T03:58:29.842Z,-0.64
2023-01-11T03:59:03.358Z,-0.62
2023-01-11T03:59:38.660Z,-0.61
2023-01-11T04:00:12.430Z,-0.58
2023-01-11T04:00:46.549Z,-0.56
2023-01-11T04:01:20.120Z,-0.54
2023-01-11T04:01:57.213Z,-0.52
2023-01-11T04:02:40.536Z,-0.51
2023-01-11T04:03:14.933Z,-0.50
2023-01-11T04:03:48.260Z,-0.49
2023-01-11T04:04:22.256Z,-0.47
2023-01-11T04:04:55.667Z,-0.46
2023-01-11T04:05:29.354Z,-0.44
2023-01-11T04:06:03.375Z,-0.47
2023-01-11T04:06:38.674Z,-0.38
2023-01-11T04:07:12.161Z,-0.37
2023-01-11T04:07:45.986Z,-0.37
2023-01-11T04:08:19.967Z,-0.34
2023-01-11T04:08:53.365Z,-0.34
2023-01-11T04:09:26.722Z,-0.23
2023-01-11T04:10:00.260Z,-0.25
2023-01-11T04:10:33.692Z,-0.25
2023-01-11T04:11:07.627Z,-0.22
2023-01-11T04:11:41.075Z,-0.13
2023-01-11T04:12:14.552Z,-0.15
2023-01-11T04:12:49.043Z,-0.18
2023-01-11T04:13:22.549Z,-0.19
2023-01-11T04:13:56.059Z,-0.16
2023-01-11T04:14:29.586Z,-0.14
2023-01-11T04:15:05.368Z,-0.13
2023-01-11T04:15:38.856Z,-0.15
2023-01-11T04:16:12.293Z,-0.15
2023-01-11T04:16:45.740Z,-0.13
2023-01-11T04:17:19.171Z,-0.16
2023-01-11T04:17:52.654Z,-0.16
2023-01-11T04:18:26.183Z,-0.14
2023-01-11T04:19:00.133Z,-0.10
2023-01-11T04:19:33.507Z,-0.09
2023-01-11T04:20:10.139Z,-0.08
2023-01-11T04:20:43.593Z,-0.09
2023-01-11T04:21:17.074Z,-0.07
2023-01-11T04:21:50.416Z,-0.04
2023-01-11T04:22:23.847Z,-0.05
2023-01-11T04:22:57.238Z,-0.06
2023-01-11T04:23:31.177Z,-0.07
2023-01-11T04:24:04.737Z,-0.05
2023-01-11T04:24:38.106Z,-0.04
2023-01-11T04:25:11.528Z,-0.01
2023-01-11T04:25:45.031Z,0.01
2023-01-11T04:26:18.407Z,0.06
2023-01-11T04:26:51.813Z,0.06
2023-01-11T04:27:25.153Z,0.05
2023-01-11T04:27:59.420Z,0.06
2023-01-11T04:28:34.517Z,0.04
2023-01-11T04:29:07.891Z,0.03
2023-01-11T04:29:41.434Z,0.02
2023-01-11T04:30:15.134Z,0.04
2023-01-11T04:30:48.512Z,0.08
2023-01-11T04:31:22.180Z,0.11
2023-01-11T04:31:55.717Z,0.10
2023-01-11T04:32:29.178Z,0.10
2023-01-11T04:33:02.552Z,0.08
2023-01-11T04:33:36.091Z,0.07
2023-01-11T04:34:09.659Z,0.00
2023-01-11T04:34:43.326Z,0.09
2023-01-11T04:35:16.811Z,0.09
2023-01-11T04:35:50.520Z,0.10
2023-01-11T04:36:24.370Z,0.12
2023-01-11T04:36:57.735Z,0.17
2023-01-11T04:37:31.260Z,0.16
2023-01-11T04:38:06.848Z,0.16
2023-01-11T04:38:40.174Z,0.16
2023-01-11T04:39:13.536Z,0.17
2023-01-11T04:39:47.177Z,0.16
2023-01-11T04:40:20.653Z,0.15
2023-01-11T04:41:14.158Z,0.15
2023-01-11T04:42:06.442Z,0.15
2023-01-11T04:42:40.020Z,0.14
2023-01-11T04:43:13.648Z,0.15
2023-01-11T04:43:47.023Z,0.16
2023-01-11T04:44:20.382Z,0.18
2023-01-11T04:44:53.821Z,0.19
2023-01-11T04:45:27.177Z,0.19
2023-01-11T04:46:00.641Z,0.22
2023-01-11T04:46:34.362Z,0.26
2023-01-11T04:47:07.730Z,0.24
2023-01-11T04:47:41.210Z,0.26
2023-01-11T04:48:14.552Z,0.30
2023-01-11T04:48:48.031Z,0.27
2023-01-11T04:49:21.416Z,0.20
2023-01-11T04:49:54.902Z,0.17
2023-01-11T04:50:28.432Z,0.17
2023-01-11T04:51:01.901Z,0.18
2023-01-11T04:51:35.343Z,0.19
2023-01-11T04:52:11.649Z,0.22
2023-01-11T04:52:45.097Z,0.26
2023-01-11T04:53:18.412Z,0.28
2023-01-11T04:53:51.981Z,0.28
2023-01-11T04:54:25.401Z,0.28
2023-01-11T04:54:58.753Z,0.29
2023-01-11T04:55:32.149Z,0.29
2023-01-11T04:56:07.244Z,0.31
2023-01-11T04:56:40.774Z,0.32
2023-01-11T04:57:16.356Z,0.36
2023-01-11T04:57:49.730Z,0.37
2023-01-11T04:58:23.102Z,0.35
2023-01-11T04:58:56.877Z,0.31
2023-01-11T04:59:30.519Z,0.31
2023-01-11T05:00:11.019Z,0.31
2023-01-11T05:00:44.503Z,0.33
2023-01-11T05:01:19.633Z,0.33
2023-01-11T05:01:53.121Z,0.32
2023-01-11T05:02:26.699Z,0.31
2023-01-11T05:03:00.159Z,0.31
2023-01-11T05:03:33.626Z,0.32
2023-01-11T05:04:07.232Z,0.34
2023-01-11T05:04:40.823Z,0.36
2023-01-11T05:05:14.251Z,0.50
2023-01-11T05:06:01.623Z,0.54
2023-01-11T05:06:35.042Z,0.51
2023-01-11T05:07:09.530Z,0.59
2023-01-11T05:07:43.137Z,0.62
2023-01-11T05:08:16.544Z,0.64
2023-01-11T05:08:49.967Z,0.61
2023-01-11T05:09:23.477Z,0.58
2023-01-11T05:09:56.788Z,0.57
2023-01-11T05:10:32.460Z,0.58
2023-01-11T05:11:08.620Z,0.59
2023-01-11T05:11:42.261Z,0.63
2023-01-11T05:12:15.664Z,0.67
2023-01-11T05:12:49.075Z,0.74
2023-01-11T05:13:41.639Z,0.85
2023-01-11T05:14:16.771Z,0.84
2023-01-11T05:14:50.227Z,0.81
2023-01-11T05:15:23.924Z,0.79
2023-01-11T05:15:57.274Z,0.81
2023-01-11T05:16:30.780Z,0.80
2023-01-11T05:17:04.204Z,0.84
2023-01-11T05:17:37.687Z,0.84
2023-01-11T05:18:11.236Z,1.00
2023-01-11T05:18:48.862Z,1.05
2023-01-11T05:19:22.291Z,1.07
2023-01-11T05:19:55.677Z,0.97
2023-01-11T05:20:28.997Z,0.93
2023-01-11T05:21:02.851Z,0.92
2023-01-11T05:21:39.440Z,0.93
2023-01-11T05:22:12.853Z,0.93
2023-01-11T05:22:46.211Z,0.93
2023-01-11T05:23:19.571Z,0.94
2023-01-11T05:23:54.398Z,0.99
2023-01-11T05:24:27.927Z,0.98
2023-01-11T05:25:01.388Z,1.00
2023-01-11T05:25:34.885Z,1.03
2023-01-11T05:26:20.458Z,1.04
2023-01-11T05:26:53.857Z,1.02
2023-01-11T05:27:27.245Z,1.05
2023-01-11T05:28:00.621Z,1.09
2023-01-11T05:28:35.122Z,1.08
2023-01-11T05:29:11.322Z,1.16
2023-01-11T05:29:45.936Z,1.18
2023-01-11T05:30:19.651Z,1.19
2023-01-11T05:30:53.659Z,1.17
2023-01-11T05:31:27.636Z,1.14
2023-01-11T05:32:01.443Z,1.16
2023-01-11T05:32:35.002Z,1.16
2023-01-11T05:33:08.382Z,1.20
2023-01-11T05:33:42.073Z,1.29
2023-01-11T05:34:16.794Z,1.36
2023-01-11T05:34:50.186Z,1.30
2023-01-11T05:35:23.841Z,1.31
2023-01-11T05:36:02.821Z,1.34
2023-01-11T05:36:36.794Z,1.35
2023-01-11T05:37:10.108Z,1.31
2023-01-11T05:37:43.597Z,1.28
2023-01-11T05:38:17.174Z,1.31
2023-01-11T05:38:52.438Z,1.38
2023-01-11T05:39:25.952Z,1.38
2023-01-11T05:39:59.330Z,1.37
2023-01-11T05:40:32.806Z,1.37
2023-01-11T05:41:08.722Z,1.35
2023-01-11T05:41:42.390Z,1.38
2023-01-11T05:42:16.957Z,1.44
2023-01-11T05:42:50.492Z,1.41
2023-01-11T05:43:24.050Z,1.37
2023-01-11T05:44:16.389Z,1.35
2023-01-11T05:45:08.562Z,1.35
2023-01-11T05:45:41.957Z,1.30
2023-01-11T05:46:15.391Z,1.35
2023-01-11T05:46:49.065Z,1.38
2023-01-11T05:47:24.782Z,1.41
2023-01-11T05:47:59.573Z,1.42
2023-01-11T05:48:32.930Z,1.40
2023-01-11T05:49:07.453Z,1.39
2023-01-11T05:49:40.787Z,1.47
2023-01-11T05:50:14.214Z,1.45
2023-01-11T05:51:05.561Z,1.42
2023-01-11T05:51:40.057Z,1.45
2023-01-11T05:52:13.466Z,1.55
2023-01-11T05:52:46.908Z,1.52
2023-01-11T05:53:21.905Z,1.56
2023-01-11T05:53:56.707Z,1.54
2023-01-11T05:54:30.328Z,1.51
2023-01-11T05:55:04.021Z,1.51
2023-01-11T05:55:37.476Z,1.52
2023-01-11T05:56:13.364Z,1.51
2023-01-11T05:56:46.883Z,1.47
2023-01-11T05:57:20.616Z,1.44
2023-01-11T05:57:55.238Z,1.43
2023-01-11T05:58:28.719Z,1.49
2023-01-11T05:59:04.125Z,1.46
2023-01-11T05:59:37.696Z,1.44
2023-01-11T06:00:12.891Z,1.43
2023-01-11T06:00:51.122Z,1.45
2023-01-11T06:01:25.512Z,1.53
2023-01-11T06:01:58.981Z,1.55
2023-01-11T06:02:32.719Z,1.51
2023-01-11T06:03:06.681Z,1.53
2023-01-11T06:03:40.075Z,1.50
2023-01-11T06:04:13.537Z,1.52
2023-01-11T06:04:46.941Z,1.52
2023-01-11T06:05:20.607Z,1.53
2023-01-11T06:05:54.756Z,1.50
2023-01-11T06:06:28.194Z,1.49
2023-01-11T06:07:01.667Z,1.49
2023-01-11T06:07:35.202Z,1.48
2023-01-11T06:08:08.832Z,1.48
2023-01-11T06:08:42.262Z,1.49
2023-01-11T06:09:15.707Z,1.46
2023-01-11T06:09:49.097Z,1.57
2023-01-11T06:10:22.500Z,1.54
2023-01-11T06:10:57.116Z,1.57
2023-01-11T06:11:30.633Z,1.57
2023-01-11T06:12:04.042Z,1.59
2023-01-11T06:12:37.388Z,1.69
2023-01-11T06:13:29.025Z,1.66
2023-01-11T06:14:02.505Z,1.61
2023-01-11T06:14:38.038Z,1.61
2023-01-11T06:15:11.791Z,1.59
2023-01-11T06:15:45.205Z,1.60
2023-01-11T06:16:20.805Z,1.59
2023-01-11T06:16:55.096Z,1.61
2023-01-11T06:17:28.597Z,1.64
2023-01-11T06:18:02.024Z,1.67
2023-01-11T06:18:38.040Z,1.71
2023-01-11T06:19:11.708Z,1.82
2023-01-11T06:19:45.039Z,1.85
2023-01-11T06:20:18.494Z,1.77
2023-01-11T06:20:53.822Z,1.74
2023-01-11T06:21:27.302Z,1.73
2023-01-11T06:22:00.706Z,1.72
2023-01-11T06:22:34.140Z,1.72
2023-01-11T06:23:07.640Z,1.74
2023-01-11T06:23:44.313Z,1.76
2023-01-11T06:24:17.965Z,1.75
2023-01-11T06:24:51.447Z,1.80
2023-01-11T06:25:24.870Z,1.83
2023-01-11T06:26:02.629Z,1.83
2023-01-11T06:26:38.808Z,1.79
2023-01-11T06:27:17.731Z,1.75
2023-01-11T06:27:52.987Z,1.74
2023-01-11T06:28:26.400Z,1.73
2023-01-11T06:28:59.811Z,1.77
2023-01-11T06:29:33.375Z,1.79
2023-01-11T06:30:07.660Z,1.79
2023-01-11T06:30:41.492Z,1.84
2023-01-11T06:31:17.615Z,1.84
2023-01-11T06:31:51.522Z,1.81
2023-01-11T06:32:24.971Z,1.84
2023-01-11T06:33:07.744Z,1.83
2023-01-11T06:33:41.373Z,1.77
2023-01-11T06:34:14.807Z,1.77
2023-01-11T06:34:48.142Z,1.78
2023-01-11T06:35:21.926Z,1.80
2023-01-11T06:35:56.145Z,1.82
2023-01-11T06:36:29.900Z,1.81
2023-01-11T06:37:03.441Z,1.79
2023-01-11T06:37:36.867Z,1.77
2023-01-11T06:38:12.512Z,1.82
2023-01-11T06:38:46.089Z,2.01
2023-01-11T06:39:19.740Z,1.97
2023-01-11T06:39:53.073Z,1.88
2023-01-11T06:40:26.473Z,1.84
2023-01-11T06:41:02.228Z,1.90
2023-01-11T06:41:35.639Z,1.87
2023-01-11T06:42:08.990Z,1.89
2023-01-11T06:42:42.629Z,1.96
2023-01-11T06:43:16.063Z,1.98
2023-01-11T06:43:51.322Z,2.05
2023-01-11T06:44:24.745Z,2.09
2023-01-11T06:44:58.079Z,2.02
2023-01-11T06:45:31.928Z,1.94
2023-01-11T06:46:07.633Z,1.93
2023-01-11T06:46:41.366Z,1.96
2023-01-11T06:47:14.809Z,1.92
2023-01-11T06:47:48.437Z,1.89
2023-01-11T06:48:23.357Z,1.87
2023-01-11T06:48:56.766Z,1.86
2023-01-11T06:49:30.384Z,1.86
2023-01-11T06:50:04.622Z,1.88
2023-01-11T06:50:37.984Z,1.89
2023-01-11T06:51:12.240Z,1.94
2023-01-11T06:51:45.728Z,2.08
2023-01-11T06:52:19.099Z,2.10
2023-01-11T06:53:01.071Z,2.03
2023-01-11T06:53:34.440Z,2.02
2023-01-11T06:54:07.905Z,2.06
2023-01-11T06:54:41.321Z,1.99
2023-01-11T06:55:14.734Z,2.03
2023-01-11T06:55:52.739Z,1.99
2023-01-11T06:56:26.174Z,1.94
2023-01-11T06:56:59.515Z,1.92
2023-01-11T06:57:33.916Z,1.93
2023-01-11T06:58:07.342Z,1.99
2023-01-11T06:58:40.917Z,2.04
2023-01-11T06:59:14.337Z,2.02
2023-01-11T06:59:47.750Z,2.04
2023-01-11T07:00:21.808Z,2.13
2023-01-11T07:00:57.339Z,2.05
2023-01-11T07:01:32.541Z,2.02
2023-01-11T07:02:06.621Z,2.06
2023-01-11T07:02:39.988Z,2.10
2023-01-11T07:03:13.644Z,2.01
2023-01-11T07:03:47.004Z,2.03
2023-01-11T07:04:21.833Z,2.05
2023-01-11T07:04:55.293Z,2.07
2023-01-11T07:05:28.718Z,2.12
2023-01-11T07:06:02.857Z,2.07
2023-01-11T07:06:36.494Z,2.03
2023-01-11T07:07:10.011Z,2.03
2023-01-11T07:07:44.196Z,2.11
2023-01-11T07:08:17.667Z,2.23
2023-01-11T07:08:51.056Z,2.27
2023-01-11T07:09:24.396Z,2.30
2023-01-11T07:09:57.753Z,2.22
2023-01-11T07:10:31.444Z,2.14
2023-01-11T07:11:05.057Z,2.10
2023-01-11T07:11:39.433Z,2.06
2023-01-11T07:12:12.777Z,2.05
2023-01-11T07:12:46.148Z,2.10
2023-01-11T07:13:19.905Z,2.12
2023-01-11T07:13:53.229Z,2.17
2023-01-11T07:14:26.632Z,2.11
2023-01-11T07:15:00.157Z,2.12
2023-01-11T07:15:33.886Z,2.17
2023-01-11T07:16:07.589Z,2.21
2023-01-11T07:16:41.721Z,2.20
2023-01-11T07:17:15.190Z,2.16
2023-01-11T07:17:53.383Z,2.21
2023-01-11T07:18:26.835Z,2.16
2023-01-11T07:19:00.295Z,2.25
2023-01-11T07:19:33.739Z,2.28
2023-01-11T07:20:08.101Z,2.22
2023-01-11T07:20:41.971Z,2.21
2023-01-11T07:21:15.405Z,2.25
2023-01-11T07:21:48.873Z,2.29
2023-01-11T07:22:22.971Z,2.33
2023-01-11T07:23:00.559Z,2.29
2023-01-11T07:23:33.956Z,2.19
2023-01-11T07:24:07.399Z,2.15
2023-01-11T07:24:40.755Z,2.14
2023-01-11T07:25:14.242Z,2.13
2023-01-11T07:25:48.733Z,2.13
2023-01-11T07:26:22.178Z,2.12
2023-01-11T07:26:56.545Z,2.14
2023-01-11T07:27:30.057Z,2.15
2023-01-11T07:28:06.039Z,2.17
2023-01-11T07:28:39.483Z,2.20
2023-01-11T07:29:12.824Z,2.33
2023-01-11T07:29:46.921Z,2.29
2023-01-11T07:30:20.522Z,2.26
2023-01-11T07:30:59.389Z,2.23
2023-01-11T07:31:33.475Z,2.20
2023-01-11T07:32:08.453Z,2.17
2023-01-11T07:32:41.911Z,2.17
2023-01-11T07:33:16.627Z,2.22
2023-01-11T07:33:50.177Z,2.21
2023-01-11T07:34:24.145Z,2.21
2023-01-11T07:34:57.605Z,2.22
2023-01-11T07:35:31.132Z,2.20
2023-01-11T07:36:09.098Z,2.18
2023-01-11T07:36:42.450Z,2.19
2023-01-11T07:37:28.134Z,2.16
2023-01-11T07:38:03.304Z,2.19
2023-01-11T07:38:36.722Z,2.18
2023-01-11T07:39:10.222Z,2.17
2023-01-11T07:39:44.192Z,2.20
2023-01-11T07:40:19.417Z,2.18
2023-01-11T07:40:52.816Z,2.19
2023-01-11T07:41:44.717Z,2.20
2023-01-11T07:42:36.991Z,2.24
2023-01-11T07:43:14.912Z,2.26
2023-01-11T07:43:48.472Z,2.28
2023-01-11T07:44:22.011Z,2.23
2023-01-11T07:44:55.521Z,2.24
2023-01-11T07:45:40.842Z,2.23
2023-01-11T07:46:18.509Z,2.21
2023-01-11T07:46:52.215Z,2.22
2023-01-11T07:47:25.804Z,2.23
2023-01-11T07:47:59.229Z,2.25
2023-01-11T07:48:32.627Z,2.24
2023-01-11T07:49:05.998Z,2.25
2023-01-11T07:49:39.367Z,2.25
2023-01-11T07:50:12.836Z,2.25
2023-01-11T07:50:46.684Z,2.26
2023-01-11T07:51:24.315Z,2.28
2023-01-11T07:51:57.747Z,2.27
2023-01-11T07:52:31.235Z,2.31
2023-01-11T07:53:04.688Z,2.32
2023-01-11T07:53:38.128Z,2.34
2023-01-11T07:54:11.471Z,2.32
2023-01-11T07:54:44.941Z,2.34
2023-01-11T07:55:18.391Z,2.33
2023-01-11T07:55:51.813Z,2.35
2023-01-11T07:56:25.241Z,2.37
2023-01-11T07:56:58.936Z,2.42
2023-01-11T07:57:33.314Z,2.38
2023-01-11T07:58:15.412Z,2.36
2023-01-11T07:58:48.768Z,2.34
2023-01-11T07:59:22.727Z,2.34
2023-01-11T07:59:56.079Z,2.38
2023-01-11T08:00:29.679Z,2.35
2023-01-11T08:01:03.204Z,2.37
2023-01-11T08:01:37.247Z,2.39
2023-01-11T08:02:12.045Z,2.42
2023-01-11T08:02:45.623Z,2.42
2023-01-11T08:03:19.170Z,2.40
2023-01-11T08:03:52.741Z,2.42
2023-01-11T08:04:26.228Z,2.44